Time;durP1;ratioP1;P1;durP2;ratioP2;P2;SDS_P1;SDS_P2;PMS_P1;PMS_P2;Temp;Humidity;BMP_temperature;BMP_pressure;BME280_temperature;BME280_humidity;BME280_pressure;Samples;Min_cycle;Max_cycle;Signal;HPM_P1;HPM_P2
2024/01/31 00:01:38;;;;;;;4.90;0.98;;;4.90;99.90;;;;;;5074421;28;20109;-47
2024/01/31 00:04:04;;;;;;;12.68;1.33;;;5.50;99.90;;;;;;5074366;28;20037;-47
2024/01/31 00:06:30;;;;;;;6.85;1.20;;;5.00;99.90;;;;;;5074114;28;20569;-47
2024/01/31 00:08:57;;;;;;;8.13;1.40;;;5.00;99.90;;;;;;5074156;28;20388;-47
2024/01/31 00:11:25;;;;;;;5.32;1.10;;;5.10;99.90;;;;;;5074465;28;20036;-47
2024/01/31 00:13:52;;;;;;;7.75;1.10;;;5.30;99.90;;;;;;5074131;28;20040;-47
2024/01/31 00:16:17;;;;;;;11.80;1.70;;;5.00;99.90;;;;;;5073911;28;20546;-49
2024/01/31 00:18:43;;;;;;;9.20;1.30;;;5.20;99.90;;;;;;5073127;28;20041;-51
2024/01/31 00:21:09;;;;;;;8.73;1.25;;;5.00;99.90;;;;;;5074091;28;20091;-47
2024/01/31 00:23:34;;;;;;;10.18;1.23;;;5.40;99.90;;;;;;5073781;28;20082;-46
2024/01/31 00:26:00;;;;;;;10.07;1.73;;;5.40;99.90;;;;;;5073820;28;20037;-46
2024/01/31 00:28:26;;;;;;;6.65;0.77;;;5.40;99.90;;;;;;5073994;28;20041;-47
2024/01/31 00:30:51;;;;;;;5.07;0.90;;;5.00;99.90;;;;;;5073637;28;20040;-46
2024/01/31 00:33:17;;;;;;;5.13;0.70;;;5.10;99.90;;;;;;5073877;28;20040;-51
2024/01/31 00:35:43;;;;;;;6.03;0.80;;;5.40;99.90;;;;;;5073645;28;20037;-49
2024/01/31 00:38:08;;;;;;;7.57;0.90;;;5.30;99.90;;;;;;5073649;28;20127;-50
2024/01/31 00:40:34;;;;;;;5.82;0.98;;;5.10;99.90;;;;;;5073645;28;20040;-47
2024/01/31 00:43:00;;;;;;;3.28;0.68;;;5.00;99.90;;;;;;5073646;28;20448;-46
2024/01/31 00:45:25;;;;;;;7.63;0.82;;;5.10;99.90;;;;;;5073619;28;20032;-45
2024/01/31 00:47:51;;;;;;;9.25;1.10;;;5.30;99.90;;;;;;5072215;28;20072;-47
2024/01/31 00:50:17;;;;;;;7.30;0.90;;;5.30;99.90;;;;;;5073421;28;20491;-46
2024/01/31 00:52:42;;;;;;;6.97;0.80;;;5.30;99.90;;;;;;5073262;28;20052;-46
2024/01/31 00:55:08;;;;;;;4.93;0.82;;;5.10;99.90;;;;;;5073090;28;20055;-47
2024/01/31 00:57:34;;;;;;;8.38;1.67;;;5.30;99.90;;;;;;5073125;28;20044;-46
2024/01/31 01:00:05;;;;;;;5.53;1.15;;;5.00;99.90;;;;;;5073376;28;20040;-49
2024/01/31 01:02:31;;;;;;;7.05;1.02;;;5.30;99.90;;;;;;5073045;28;20488;-46
2024/01/31 01:04:57;;;;;;;3.60;0.68;;;5.10;99.90;;;;;;5072995;28;20448;-51
2024/01/31 01:07:23;;;;;;;10.15;1.20;;;5.10;99.90;;;;;;5072904;28;20183;-46
2024/01/31 01:09:49;;;;;;;7.00;1.00;;;5.00;99.90;;;;;;5073104;28;20127;-48
2024/01/31 01:12:15;;;;;;;7.57;1.27;;;5.30;99.90;;;;;;5073118;28;20052;-47
2024/01/31 01:14:40;;;;;;;9.70;0.75;;;5.00;99.90;;;;;;5073066;28;20044;-48
2024/01/31 01:17:06;;;;;;;4.20;0.90;;;5.10;99.90;;;;;;5072576;28;20045;-47
2024/01/31 01:19:32;;;;;;;5.57;0.65;;;5.00;99.90;;;;;;5072785;28;20039;-51
2024/01/31 01:22:00;;;;;;;4.38;0.70;;;5.00;99.90;;;;;;5073036;28;20036;-50
2024/01/31 01:24:26;;;;;;;7.20;1.02;;;4.90;99.90;;;;;;5072636;28;20044;-47
2024/01/31 01:26:51;;;;;;;7.07;0.95;;;5.00;99.90;;;;;;5072935;28;20048;-46
2024/01/31 01:29:17;;;;;;;5.82;1.50;;;4.80;99.90;;;;;;5072727;28;20062;-47
2024/01/31 01:31:43;;;;;;;11.25;2.03;;;4.80;99.90;;;;;;5072594;28;20468;-46
2024/01/31 01:34:11;;;;;;;5.20;0.68;;;4.80;99.90;;;;;;5072816;28;20439;-46
2024/01/31 01:36:36;;;;;;;3.85;0.90;;;4.80;99.90;;;;;;5072404;28;20044;-46
2024/01/31 01:39:03;;;;;;;8.43;0.98;;;4.60;99.90;;;;;;5072491;28;20036;-47
2024/01/31 01:41:28;;;;;;;4.57;0.80;;;4.70;99.90;;;;;;5072434;28;20041;-49
2024/01/31 01:43:54;;;;;;;6.88;0.80;;;4.70;99.90;;;;;;5072602;28;20052;-46
2024/01/31 01:46:23;;;;;;;3.95;0.80;;;4.80;99.90;;;;;;5072226;28;20040;-46
2024/01/31 01:48:52;;;;;;;4.68;0.77;;;4.80;99.90;;;;;;5072493;28;20070;-49
2024/01/31 01:51:20;;;;;;;6.57;0.80;;;4.80;99.90;;;;;;5072386;28;20564;-46
2024/01/31 01:53:47;;;;;;;4.45;0.80;;;4.60;99.90;;;;;;5071127;28;20059;-51
2024/01/31 01:56:17;;;;;;;4.43;0.73;;;4.80;99.90;;;;;;5072260;28;20090;-49
2024/01/31 01:58:44;;;;;;;3.28;0.70;;;4.70;99.90;;;;;;5072023;28;20131;-49
2024/01/31 02:01:12;;;;;;;3.72;0.90;;;4.80;99.90;;;;;;5070819;28;20040;-50
2024/01/31 02:03:38;;;;;;;6.50;0.80;;;4.60;99.90;;;;;;5072028;28;20075;-50
2024/01/31 02:06:04;;;;;;;6.60;0.88;;;4.60;99.90;;;;;;5072141;28;20075;-46
2024/01/31 02:08:30;;;;;;;5.97;1.10;;;4.50;99.90;;;;;;5072291;28;20463;-50
2024/01/31 02:10:56;;;;;;;5.22;0.82;;;4.50;99.90;;;;;;5072232;28;20040;-47
2024/01/31 02:13:23;;;;;;;6.18;0.95;;;4.50;99.90;;;;;;5072098;28;20127;-48
2024/01/31 02:15:53;;;;;;;7.53;1.33;;;4.70;99.90;;;;;;5072160;28;20392;-49
2024/01/31 02:18:19;;;;;;;5.47;0.73;;;4.40;99.90;;;;;;5070815;28;20098;-47
2024/01/31 02:20:45;;;;;;;6.40;1.10;;;4.30;99.90;;;;;;5070606;28;20076;-50
2024/01/31 02:23:10;;;;;;;4.47;0.80;;;4.50;99.90;;;;;;5071751;28;20072;-46
2024/01/31 02:25:36;;;;;;;5.43;0.80;;;4.60;99.90;;;;;;5071846;28;20459;-45
2024/01/31 02:28:02;;;;;;;4.47;0.90;;;4.40;99.90;;;;;;5071903;28;20353;-46
2024/01/31 02:30:28;;;;;;;4.50;0.77;;;4.40;99.90;;;;;;5072070;28;20119;-46
2024/01/31 02:32:56;;;;;;;7.60;1.70;;;4.30;99.90;;;;;;5071745;28;20334;-46
2024/01/31 02:35:23;;;;;;;6.88;1.20;;;4.30;99.90;;;;;;5071918;28;20094;-46
2024/01/31 02:37:49;;;;;;;6.28;0.95;;;4.20;99.90;;;;;;5070546;28;20044;-45
2024/01/31 02:40:15;;;;;;;10.45;1.65;;;4.40;99.90;;;;;;5072006;28;20036;-46
2024/01/31 02:42:41;;;;;;;4.57;0.82;;;4.30;99.90;;;;;;5074197;28;20033;-47
2024/01/31 02:45:07;;;;;;;5.60;1.58;;;4.40;99.90;;;;;;5075791;28;20037;-45
2024/01/31 02:47:36;;;;;;;5.47;0.70;;;4.30;99.90;;;;;;5075634;28;20036;-49
2024/01/31 02:50:03;;;;;;;5.35;0.80;;;4.30;99.90;;;;;;5075861;28;20039;-49
2024/01/31 02:52:28;;;;;;;6.25;1.27;;;4.40;99.90;;;;;;5075946;28;20074;-47
2024/01/31 02:54:54;;;;;;;4.00;0.80;;;4.50;99.90;;;;;;5075764;28;20424;-48
2024/01/31 02:57:20;;;;;;;8.32;1.35;;;4.50;99.90;;;;;;5074053;28;20480;-49
2024/01/31 02:59:46;;;;;;;8.48;1.17;;;4.40;99.90;;;;;;5075532;28;20400;-50
2024/01/31 03:02:14;;;;;;;8.73;1.15;;;4.60;99.90;;;;;;5075451;28;20043;-50
2024/01/31 03:04:40;;;;;;;8.57;2.25;;;4.40;99.90;;;;;;5075534;28;20136;-49
2024/01/31 03:07:06;;;;;;;6.95;1.40;;;4.30;99.90;;;;;;5075380;28;20131;-50
2024/01/31 03:09:31;;;;;;;7.85;1.10;;;4.60;99.90;;;;;;5074104;28;20052;-46
2024/01/31 03:11:57;;;;;;;6.38;2.15;;;4.60;99.90;;;;;;5075259;28;20040;-47
2024/01/31 03:14:23;;;;;;;9.00;1.20;;;4.40;99.90;;;;;;5075212;28;20386;-47
2024/01/31 03:16:48;;;;;;;5.70;1.10;;;4.50;99.90;;;;;;5073766;28;20063;-46
2024/01/31 03:19:15;;;;;;;6.65;1.17;;;4.40;99.90;;;;;;5074088;28;20043;-46
2024/01/31 03:21:41;;;;;;;6.82;0.93;;;4.60;99.90;;;;;;5074967;28;20041;-50
2024/01/31 03:24:07;;;;;;;9.57;1.73;;;4.50;99.90;;;;;;5075039;28;20071;-47
2024/01/31 03:26:33;;;;;;;7.22;1.08;;;4.50;99.90;;;;;;5074795;28;20072;-51
2024/01/31 03:29:01;;;;;;;4.65;0.90;;;4.50;99.90;;;;;;5075164;28;20056;-50
2024/01/31 03:31:27;;;;;;;6.20;1.05;;;4.50;99.90;;;;;;5073661;28;20044;-49
2024/01/31 03:33:53;;;;;;;4.78;0.80;;;4.50;99.90;;;;;;5074795;28;20107;-48
2024/01/31 03:36:19;;;;;;;9.27;1.52;;;4.50;99.90;;;;;;5074692;28;20203;-46
2024/01/31 03:38:44;;;;;;;7.35;1.40;;;4.70;99.90;;;;;;5074872;28;20044;-50
2024/01/31 03:41:10;;;;;;;7.78;1.52;;;4.60;99.90;;;;;;5074739;28;20051;-48
2024/01/31 03:43:36;;;;;;;5.18;0.90;;;4.70;99.90;;;;;;5074621;28;20037;-49
2024/01/31 03:46:05;;;;;;;5.35;1.00;;;4.50;99.90;;;;;;5074799;28;20083;-46
2024/01/31 03:48:31;;;;;;;7.75;1.92;;;4.60;99.90;;;;;;5074600;28;20044;-46
2024/01/31 03:50:58;;;;;;;8.63;0.90;;;4.70;99.90;;;;;;5074717;28;20043;-47
2024/01/31 03:53:27;;;;;;;5.63;1.00;;;4.60;99.90;;;;;;5074482;28;20048;-46
2024/01/31 03:55:53;;;;;;;7.28;0.90;;;4.60;99.90;;;;;;5074379;28;20428;-47
2024/01/31 03:58:19;;;;;;;3.95;0.77;;;4.60;99.90;;;;;;5074158;28;20053;-47
2024/01/31 04:00:45;;;;;;;6.43;0.98;;;4.60;99.90;;;;;;5074348;28;20110;-48
2024/01/31 04:03:11;;;;;;;4.15;0.90;;;4.40;99.90;;;;;;5074439;28;20036;-47
2024/01/31 04:05:37;;;;;;;4.85;1.00;;;4.30;99.90;;;;;;5072872;28;20443;-45
2024/01/31 04:08:03;;;;;;;4.05;0.75;;;4.40;99.90;;;;;;5074127;28;20109;-46
2024/01/31 04:10:28;;;;;;;5.75;0.90;;;4.20;99.90;;;;;;5074229;28;20119;-45
2024/01/31 04:12:54;;;;;;;5.47;0.80;;;4.20;99.90;;;;;;5072912;28;20544;-48
2024/01/31 04:15:20;;;;;;;8.02;1.10;;;4.30;99.90;;;;;;5073966;28;20396;-45
2024/01/31 04:17:45;;;;;;;6.28;0.88;;;4.30;99.90;;;;;;5074259;28;20431;-50
2024/01/31 04:20:12;;;;;;;8.13;1.48;;;4.10;99.90;;;;;;5074154;28;20382;-50
2024/01/31 04:22:38;;;;;;;6.57;1.55;;;4.10;99.90;;;;;;5074080;28;20037;-46
2024/01/31 04:25:05;;;;;;;4.57;1.08;;;3.90;99.90;;;;;;5073935;28;20040;-49
2024/01/31 04:27:30;;;;;;;5.45;1.10;;;4.10;99.90;;;;;;5073890;28;20044;-50
2024/01/31 04:29:56;;;;;;;5.40;1.10;;;4.00;99.90;;;;;;5074099;28;20051;-45
2024/01/31 04:32:25;;;;;;;6.82;1.30;;;3.90;99.90;;;;;;5074103;28;20048;-52
2024/01/31 04:34:51;;;;;;;7.07;1.02;;;3.80;99.90;;;;;;5073879;28;20040;-49
2024/01/31 04:37:17;;;;;;;5.47;1.30;;;3.90;99.90;;;;;;5073625;28;20404;-49
2024/01/31 04:39:43;;;;;;;7.80;0.93;;;4.00;99.90;;;;;;5073602;28;20044;-47
2024/01/31 04:42:09;;;;;;;6.82;0.90;;;4.10;99.90;;;;;;5073543;28;20097;-50
2024/01/31 04:44:35;;;;;;;9.48;1.38;;;4.10;99.90;;;;;;5073481;28;20127;-48
2024/01/31 04:47:01;;;;;;;10.80;1.55;;;3.90;99.90;;;;;;5073623;28;20032;-47
2024/01/31 04:49:27;;;;;;;10.25;1.38;;;4.00;99.90;;;;;;5073474;28;20171;-49
2024/01/31 04:51:53;;;;;;;13.63;3.10;;;4.10;99.90;;;;;;5073575;28;20465;-47
2024/01/31 04:54:19;;;;;;;4.45;1.00;;;3.80;99.90;;;;;;5073624;28;20389;-47
2024/01/31 04:56:45;;;;;;;6.65;1.00;;;4.00;99.90;;;;;;5073012;28;20049;-49
2024/01/31 04:59:10;;;;;;;6.68;1.13;;;4.00;99.90;;;;;;5073526;28;20054;-49
2024/01/31 05:01:36;;;;;;;8.20;1.10;;;4.00;99.90;;;;;;5073257;28;20389;-47
2024/01/31 05:04:03;;;;;;;8.52;1.98;;;3.90;99.90;;;;;;5072998;28;20086;-46
2024/01/31 05:06:29;;;;;;;5.72;1.00;;;4.00;99.90;;;;;;5072911;28;20051;-46
2024/01/31 05:08:54;;;;;;;7.53;1.25;;;4.00;99.90;;;;;;5073044;28;20044;-46
2024/01/31 05:11:20;;;;;;;5.38;1.20;;;3.70;99.90;;;;;;5072979;28;20045;-50
2024/01/31 05:13:45;;;;;;;5.45;0.93;;;3.90;99.90;;;;;;5073107;28;20456;-47
2024/01/31 05:16:11;;;;;;;8.30;1.88;;;3.70;99.90;;;;;;5073175;28;20449;-49
2024/01/31 05:18:37;;;;;;;11.52;1.20;;;4.00;99.90;;;;;;5073142;28;20496;-47
2024/01/31 05:21:03;;;;;;;4.72;1.00;;;3.90;99.90;;;;;;5071998;28;20037;-47
2024/01/31 05:23:29;;;;;;;6.00;1.00;;;3.90;99.90;;;;;;5072690;28;20062;-46
2024/01/31 05:25:54;;;;;;;6.22;1.27;;;3.90;99.90;;;;;;5072648;28;20041;-48
2024/01/31 05:28:20;;;;;;;9.32;1.58;;;3.80;99.90;;;;;;5072499;28;20044;-49
2024/01/31 05:30:47;;;;;;;5.38;0.90;;;3.80;99.90;;;;;;5072796;28;20396;-48
2024/01/31 05:33:12;;;;;;;8.43;1.30;;;4.00;99.90;;;;;;5072721;28;20059;-47
2024/01/31 05:35:38;;;;;;;5.03;1.00;;;3.90;99.90;;;;;;5072486;28;20032;-50
2024/01/31 05:38:05;;;;;;;6.35;1.10;;;4.10;99.90;;;;;;5072670;28;20040;-48
2024/01/31 05:40:31;;;;;;;5.70;0.80;;;4.20;99.90;;;;;;5071385;28;20052;-49
2024/01/31 05:42:57;;;;;;;5.30;1.00;;;4.20;99.90;;;;;;5072674;28;20044;-48
2024/01/31 05:45:23;;;;;;;7.18;1.10;;;3.90;99.90;;;;;;5072394;28;20037;-47
2024/01/31 05:47:49;;;;;;;5.72;1.23;;;3.90;99.90;;;;;;5072188;28;20040;-45
2024/01/31 05:50:14;;;;;;;6.45;1.10;;;4.20;99.90;;;;;;5072335;28;20040;-46
2024/01/31 05:52:40;;;;;;;8.52;1.23;;;4.20;99.90;;;;;;5072346;28;20028;-45
2024/01/31 05:55:06;;;;;;;4.38;1.50;;;4.20;99.90;;;;;;5072251;28;20479;-45
2024/01/31 05:57:32;;;;;;;7.32;1.30;;;4.00;99.90;;;;;;5071943;28;20485;-45
2024/01/31 05:59:58;;;;;;;4.97;1.05;;;4.10;99.90;;;;;;5072179;28;20052;-46
2024/01/31 06:02:24;;;;;;;6.30;1.38;;;4.30;99.90;;;;;;5070978;28;20044;-47
2024/01/31 06:04:50;;;;;;;6.38;1.40;;;4.30;99.90;;;;;;5072120;28;20044;-48
2024/01/31 06:07:16;;;;;;;6.18;1.48;;;4.30;99.90;;;;;;5072191;28;20040;-50
2024/01/31 06:09:41;;;;;;;5.63;1.10;;;4.10;99.90;;;;;;5072078;28;20473;-49
2024/01/31 06:12:07;;;;;;;6.65;1.17;;;4.30;99.90;;;;;;5054037;28;20041;-46
2024/01/31 06:14:36;;;;;;;7.15;1.15;;;4.10;99.90;;;;;;5071950;28;20058;-47
2024/01/31 06:17:03;;;;;;;6.15;1.48;;;4.30;99.90;;;;;;5071082;28;20041;-51
2024/01/31 06:19:29;;;;;;;7.18;1.77;;;4.30;99.90;;;;;;5071902;28;20384;-49
2024/01/31 06:21:55;;;;;;;7.05;1.40;;;4.40;99.90;;;;;;5072157;28;20414;-49
2024/01/31 06:24:20;;;;;;;6.18;1.60;;;4.40;99.90;;;;;;5072118;28;20040;-48
2024/01/31 06:26:46;;;;;;;7.45;1.30;;;4.20;99.90;;;;;;5072113;28;20451;-50
2024/01/31 06:29:17;;;;;;;9.38;1.50;;;4.20;99.90;;;;;;5072190;28;20528;-50
2024/01/31 06:31:47;;;;;;;11.43;3.92;;;3.90;99.90;;;;;;5072002;28;20396;-48
2024/01/31 06:34:14;;;;;;;12.75;1.85;;;3.90;99.90;;;;;;5071786;28;20048;-48
2024/01/31 06:36:40;;;;;;;6.38;1.30;;;3.90;99.90;;;;;;5071546;28;20115;-50
2024/01/31 06:39:05;;;;;;;15.70;1.75;;;4.00;99.90;;;;;;5071762;28;20060;-47
2024/01/31 06:41:32;;;;;;;5.53;1.40;;;4.30;99.90;;;;;;5071853;28;20048;-47
2024/01/31 06:43:57;;;;;;;5.53;1.15;;;4.30;99.90;;;;;;5071669;28;20047;-48
2024/01/31 06:46:23;;;;;;;7.60;1.45;;;4.10;99.90;;;;;;5071573;28;20037;-50
2024/01/31 06:48:49;;;;;;;6.45;1.33;;;4.30;99.90;;;;;;5071588;28;20120;-46
2024/01/31 06:51:14;;;;;;;4.68;1.40;;;4.00;99.90;;;;;;5071590;28;20056;-50
2024/01/31 06:53:40;;;;;;;6.50;1.58;;;4.00;99.90;;;;;;5071794;28;20410;-48
2024/01/31 06:56:06;;;;;;;6.88;1.35;;;4.20;99.90;;;;;;5070225;28;20626;-47
2024/01/31 06:58:32;;;;;;;7.78;1.98;;;4.30;99.90;;;;;;5069001;28;20077;-46
2024/01/31 07:01:01;;;;;;;8.52;1.45;;;4.10;99.90;;;;;;5070397;28;20060;-49
2024/01/31 07:03:27;;;;;;;6.88;2.08;;;4.20;99.90;;;;;;5070641;28;20105;-47
2024/01/31 07:05:53;;;;;;;10.63;1.73;;;4.00;99.90;;;;;;5070561;28;20041;-47
2024/01/31 07:08:18;;;;;;;7.43;1.60;;;4.00;99.90;;;;;;5070717;28;20603;-48
2024/01/31 07:10:44;;;;;;;6.18;1.02;;;4.10;99.90;;;;;;5070803;28;20503;-47
2024/01/31 07:13:10;;;;;;;9.82;1.35;;;4.20;99.90;;;;;;5070739;28;20045;-49
2024/01/31 07:15:35;;;;;;;9.75;1.60;;;4.30;99.90;;;;;;5070526;28;20040;-48
2024/01/31 07:18:02;;;;;;;8.52;1.63;;;4.20;99.90;;;;;;5070350;28;20045;-47
2024/01/31 07:20:28;;;;;;;9.60;1.90;;;4.10;99.90;;;;;;5070324;28;20048;-47
2024/01/31 07:22:53;;;;;;;8.75;1.95;;;4.20;99.90;;;;;;5070587;28;20043;-47
2024/01/31 07:25:19;;;;;;;8.68;1.40;;;4.20;99.90;;;;;;5070522;28;20037;-48
2024/01/31 07:27:45;;;;;;;9.95;1.33;;;4.10;99.90;;;;;;5070707;28;20033;-50
2024/01/31 07:30:11;;;;;;;7.05;1.23;;;4.10;99.90;;;;;;5073693;28;20119;-45
2024/01/31 07:32:38;;;;;;;8.10;1.25;;;4.40;99.90;;;;;;5073005;28;20097;-47
2024/01/31 07:35:04;;;;;;;7.32;1.45;;;4.40;99.90;;;;;;5074084;28;20435;-46
2024/01/31 07:37:30;;;;;;;5.50;1.40;;;4.30;99.90;;;;;;5073559;28;20040;-47
2024/01/31 07:39:56;;;;;;;9.85;1.50;;;4.40;99.90;;;;;;5073534;28;20485;-50
2024/01/31 07:42:22;;;;;;;7.53;1.35;;;4.30;99.90;;;;;;5073654;28;20609;-46
2024/01/31 07:44:48;;;;;;;5.35;1.40;;;4.30;99.90;;;;;;5073660;28;20036;-49
2024/01/31 07:47:14;;;;;;;5.18;1.42;;;4.30;99.90;;;;;;5073319;28;20044;-46
2024/01/31 07:49:43;;;;;;;6.68;1.77;;;4.30;99.90;;;;;;5073896;28;20048;-48
2024/01/31 07:52:10;;;;;;;5.28;1.67;;;4.30;99.90;;;;;;5073681;28;20043;-48
2024/01/31 07:54:36;;;;;;;7.22;1.77;;;4.30;99.90;;;;;;5072389;28;20060;-48
2024/01/31 07:57:02;;;;;;;9.05;1.70;;;4.50;99.90;;;;;;5072003;28;20056;-47
2024/01/31 07:59:28;;;;;;;7.05;1.55;;;4.50;99.90;;;;;;5073747;28;20044;-48
2024/01/31 08:01:54;;;;;;;6.28;1.67;;;4.40;99.90;;;;;;5073671;28;20040;-46
2024/01/31 08:04:19;;;;;;;5.00;1.90;;;4.40;99.90;;;;;;5073539;28;20044;-48
2024/01/31 08:06:45;;;;;;;8.05;2.05;;;4.50;99.90;;;;;;5073555;28;20045;-52
2024/01/31 08:09:11;;;;;;;7.78;3.55;;;4.60;99.90;;;;;;5073624;28;20102;-52
2024/01/31 08:11:44;;;;;;;6.45;2.00;;;4.50;99.90;;;;;;5073514;28;20036;-47
2024/01/31 08:14:10;;;;;;;6.38;2.22;;;4.60;99.90;;;;;;5073340;28;20048;-51
2024/01/31 08:16:36;;;;;;;9.57;2.40;;;4.50;99.90;;;;;;5073071;28;20469;-51
2024/01/31 08:19:02;;;;;;;7.78;2.13;;;4.50;99.90;;;;;;5072049;28;20071;-46
2024/01/31 08:21:31;;;;;;;8.48;2.08;;;4.50;99.90;;;;;;5073408;28;20037;-47
2024/01/31 08:23:56;;;;;;;5.03;2.42;;;4.50;99.90;;;;;;5073002;28;20051;-51
2024/01/31 08:26:22;;;;;;;7.15;2.50;;;4.70;99.90;;;;;;5073110;28;20045;-49
2024/01/31 08:28:48;;;;;;;7.43;2.30;;;4.50;99.90;;;;;;5073007;28;20072;-46
2024/01/31 08:31:14;;;;;;;7.55;2.65;;;4.60;99.90;;;;;;5073005;28;20044;-47
2024/01/31 08:33:39;;;;;;;5.57;1.92;;;4.80;99.90;;;;;;5071868;28;20056;-46
2024/01/31 08:36:05;;;;;;;8.68;2.35;;;4.60;99.90;;;;;;5072891;28;20072;-51
2024/01/31 08:38:31;;;;;;;9.05;2.58;;;4.90;99.90;;;;;;5072847;28;20045;-46
2024/01/31 08:40:56;;;;;;;10.10;3.00;;;4.80;99.90;;;;;;5072148;28;20044;-47
2024/01/31 08:43:22;;;;;;;9.68;2.72;;;4.70;99.90;;;;;;5072460;28;20036;-49
2024/01/31 08:45:48;;;;;;;8.52;3.05;;;4.90;99.90;;;;;;5071463;28;20074;-50
2024/01/31 08:48:13;;;;;;;8.45;2.67;;;4.90;99.90;;;;;;5071283;28;20037;-51
2024/01/31 08:50:39;;;;;;;7.57;3.00;;;4.80;99.90;;;;;;5072718;28;20033;-48
2024/01/31 08:53:05;;;;;;;8.23;3.83;;;4.90;99.90;;;;;;5072710;28;20171;-48
2024/01/31 08:55:30;;;;;;;7.38;4.57;;;5.00;99.90;;;;;;5071339;28;20036;-49
2024/01/31 08:57:56;;;;;;;8.63;4.13;;;5.10;99.90;;;;;;5072214;28;20048;-50
2024/01/31 09:00:22;;;;;;;8.30;3.65;;;5.00;99.90;;;;;;5072438;28;20051;-47
2024/01/31 09:02:47;;;;;;;7.00;3.50;;;5.00;99.90;;;;;;5072165;28;20743;-51
2024/01/31 09:05:13;;;;;;;7.95;3.80;;;5.20;99.90;;;;;;5072099;28;20051;-50
2024/01/31 09:07:39;;;;;;;7.25;4.30;;;5.20;99.90;;;;;;5071626;28;20447;-48
2024/01/31 09:10:05;;;;;;;9.05;4.35;;;5.10;99.90;;;;;;5071852;28;20109;-46
2024/01/31 09:12:31;;;;;;;11.05;4.38;;;5.20;99.90;;;;;;5071860;28;20083;-47
2024/01/31 09:14:57;;;;;;;9.73;4.30;;;5.30;99.90;;;;;;5072227;28;20079;-47
2024/01/31 09:17:23;;;;;;;11.27;4.40;;;5.10;99.90;;;;;;5072092;28;20045;-47
2024/01/31 09:19:49;;;;;;;7.43;4.10;;;5.30;99.90;;;;;;5065633;28;20109;-48
2024/01/31 09:22:15;;;;;;;8.73;4.90;;;5.20;99.90;;;;;;5060979;28;20072;-48
2024/01/31 09:24:41;;;;;;;10.85;5.00;;;5.10;99.90;;;;;;5061014;28;20061;-48
2024/01/31 09:27:06;;;;;;;9.27;5.13;;;5.30;99.90;;;;;;5065684;28;20056;-48
2024/01/31 09:29:32;;;;;;;9.90;4.70;;;5.40;99.90;;;;;;5062178;28;20477;-47
2024/01/31 09:31:59;;;;;;;10.93;5.07;;;5.20;99.90;;;;;;5065320;28;20040;-50
2024/01/31 09:34:25;;;;;;;10.85;4.95;;;5.30;99.90;;;;;;5071778;28;20083;-46
2024/01/31 09:36:50;;;;;;;11.40;5.10;;;5.30;99.90;;;;;;5071623;28;20068;-47
2024/01/31 09:39:16;;;;;;;10.13;5.22;;;5.50;99.90;;;;;;5071650;28;20047;-48
2024/01/31 09:41:42;;;;;;;9.95;5.55;;;5.40;99.90;;;;;;5071760;28;20079;-47
2024/01/31 09:44:09;;;;;;;9.23;4.93;;;5.40;99.90;;;;;;5071574;28;20039;-48
2024/01/31 09:46:36;;;;;;;11.95;5.53;;;5.40;99.90;;;;;;5071747;28;20048;-48
2024/01/31 09:49:01;;;;;;;10.48;5.28;;;5.50;99.90;;;;;;5071545;28;20554;-51
2024/01/31 09:51:28;;;;;;;10.43;5.43;;;5.40;99.90;;;;;;5070654;28;20045;-47
2024/01/31 09:53:58;;;;;;;9.98;5.30;;;5.60;99.90;;;;;;5069883;28;20057;-48
2024/01/31 09:56:27;;;;;;;12.75;5.65;;;5.70;99.90;;;;;;5071018;28;20040;-51
2024/01/31 09:58:55;;;;;;;9.93;5.60;;;5.60;99.90;;;;;;5070694;28;20382;-48
2024/01/31 10:01:21;;;;;;;12.68;6.95;;;5.60;99.90;;;;;;5065318;28;20056;-48
2024/01/31 10:03:47;;;;;;;12.35;6.63;;;5.50;99.90;;;;;;5060385;28;20068;-51
2024/01/31 10:06:13;;;;;;;13.57;7.80;;;5.70;99.90;;;;;;5059783;28;20076;-50
2024/01/31 10:08:39;;;;;;;13.73;7.60;;;5.60;99.90;;;;;;5061757;28;20485;-46
2024/01/31 10:11:05;;;;;;;11.63;6.47;;;5.70;99.90;;;;;;5059649;28;20550;-48
2024/01/31 10:13:31;;;;;;;13.18;6.68;;;5.70;99.90;;;;;;5060994;28;20032;-51
2024/01/31 10:15:56;;;;;;;12.52;6.43;;;5.70;99.90;;;;;;5061279;28;20045;-50
2024/01/31 10:18:27;;;;;;;15.40;7.43;;;5.70;99.90;;;;;;5059584;28;20041;-46
2024/01/31 10:20:53;;;;;;;14.70;7.45;;;5.90;99.90;;;;;;5062412;28;20120;-51
2024/01/31 10:23:19;;;;;;;12.15;6.78;;;5.80;99.90;;;;;;5071145;28;20123;-49
2024/01/31 10:25:45;;;;;;;13.23;7.10;;;5.90;99.90;;;;;;5071058;28;20071;-50
2024/01/31 10:28:10;;;;;;;12.40;7.45;;;5.90;99.90;;;;;;5071247;28;20400;-50
2024/01/31 10:30:55;;;;;;;14.55;7.13;;;6.00;99.90;;;;;;5070958;28;20048;-49
2024/01/31 10:33:22;;;;;;;13.75;6.57;;;6.00;99.90;;;;;;5071212;28;20033;-51
2024/01/31 10:35:48;;;;;;;12.55;6.68;;;6.10;99.90;;;;;;5059397;28;20049;-51
2024/01/31 10:38:14;;;;;;;11.35;6.53;;;6.10;99.90;;;;;;5069161;28;20051;-48
2024/01/31 10:40:41;;;;;;;13.15;7.47;;;6.10;99.90;;;;;;5069810;28;20051;-47
2024/01/31 10:43:10;;;;;;;13.10;6.82;;;6.20;99.90;;;;;;5071164;28;20393;-50
2024/01/31 10:45:36;;;;;;;11.73;6.30;;;6.10;99.90;;;;;;5071124;28;20036;-48
2024/01/31 10:48:05;;;;;;;12.63;6.32;;;6.20;99.90;;;;;;5071022;28;20350;-47
2024/01/31 10:50:31;;;;;;;12.57;6.97;;;6.30;99.90;;;;;;5070352;28;20041;-47
2024/01/31 10:52:59;;;;;;;11.48;5.40;;;6.20;99.90;;;;;;5070588;28;20127;-47
2024/01/31 10:55:27;;;;;;;11.38;6.03;;;6.30;99.90;;;;;;5070582;28;20028;-47
2024/01/31 10:57:54;;;;;;;12.25;6.35;;;6.30;99.90;;;;;;5071506;28;20067;-48
2024/01/31 11:00:25;;;;;;;10.10;5.60;;;6.20;99.90;;;;;;5071698;28;20138;-46
2024/01/31 11:02:51;;;;;;;11.20;5.50;;;6.20;99.90;;;;;;5069850;28;20555;-47
2024/01/31 11:05:17;;;;;;;12.27;5.85;;;6.20;99.90;;;;;;5055369;28;20037;-47
2024/01/31 11:07:46;;;;;;;14.90;6.22;;;6.20;99.90;;;;;;5055777;28;20481;-46
2024/01/31 11:10:22;;;;;;;10.40;5.85;;;6.30;99.90;;;;;;5057147;28;20037;-46
2024/01/31 11:13:04;;;;;;;11.50;5.95;;;6.20;99.90;;;;;;5055663;28;20041;-51
2024/01/31 11:15:35;;;;;;;10.95;5.70;;;6.20;99.90;;;;;;5054027;28;20101;-48
2024/01/31 11:18:09;;;;;;;12.27;5.65;;;6.30;99.90;;;;;;5055535;28;20064;-46
2024/01/31 11:20:37;;;;;;;12.55;5.38;;;6.30;99.90;;;;;;5073953;28;20075;-50
2024/01/31 11:23:06;;;;;;;11.50;5.35;;;6.40;99.90;;;;;;5074952;28;20120;-46
2024/01/31 11:25:34;;;;;;;9.93;5.10;;;6.30;99.90;;;;;;5074896;28;20496;-47
2024/01/31 11:28:00;;;;;;;10.52;5.72;;;6.30;99.90;;;;;;5074899;28;20062;-50
2024/01/31 11:30:26;;;;;;;9.45;5.15;;;6.30;99.90;;;;;;5075140;28;20058;-48
2024/01/31 11:32:52;;;;;;;10.48;5.65;;;6.40;99.90;;;;;;5075040;28;20103;-52
2024/01/31 11:35:18;;;;;;;8.70;4.65;;;6.40;99.90;;;;;;5074729;28;20044;-48
2024/01/31 11:37:43;;;;;;;11.82;5.50;;;6.30;99.90;;;;;;5075116;28;20048;-49
2024/01/31 11:40:11;;;;;;;8.85;4.43;;;6.30;99.90;;;;;;5074601;28;20051;-47
2024/01/31 11:42:36;;;;;;;9.73;5.07;;;6.40;99.90;;;;;;5074939;28;20115;-49
2024/01/31 11:45:03;;;;;;;9.48;4.82;;;6.40;99.90;;;;;;5074673;28;20431;-47
2024/01/31 11:47:28;;;;;;;9.60;4.75;;;6.40;99.90;;;;;;5073443;28;20044;-49
2024/01/31 11:50:04;;;;;;;9.52;4.95;;;6.40;99.90;;;;;;5074754;28;20097;-50
2024/01/31 11:52:30;;;;;;;9.68;4.43;;;6.40;99.90;;;;;;5074530;28;20032;-47
2024/01/31 11:54:56;;;;;;;9.60;4.55;;;6.30;99.90;;;;;;5073412;28;20078;-49
2024/01/31 11:57:22;;;;;;;8.60;4.32;;;6.40;99.90;;;;;;5074386;28;20381;-47
2024/01/31 11:59:48;;;;;;;10.90;5.40;;;6.40;99.90;;;;;;5074757;28;20115;-50
2024/01/31 12:02:13;;;;;;;8.82;3.97;;;6.40;99.90;;;;;;5074544;28;20064;-49
2024/01/31 12:04:49;;;;;;;8.80;4.22;;;6.50;99.90;;;;;;5073282;28;20043;-50
2024/01/31 12:07:14;;;;;;;9.07;4.10;;;6.50;99.90;;;;;;5073234;28;20489;-49
2024/01/31 12:09:40;;;;;;;9.35;4.18;;;6.40;99.90;;;;;;5074266;28;20040;-47
2024/01/31 12:12:06;;;;;;;7.80;3.80;;;6.40;99.90;;;;;;5074289;28;20033;-48
2024/01/31 12:14:32;;;;;;;9.15;5.18;;;6.50;99.90;;;;;;5072812;28;20051;-49
2024/01/31 12:16:58;;;;;;;9.75;4.93;;;6.50;99.90;;;;;;5074359;28;20420;-48
2024/01/31 12:19:27;;;;;;;9.77;4.68;;;6.50;99.90;;;;;;5074043;28;20063;-47
2024/01/31 12:21:53;;;;;;;8.82;5.25;;;6.50;99.90;;;;;;5074269;28;20111;-46
2024/01/31 12:24:18;;;;;;;9.60;5.32;;;6.50;99.90;;;;;;5073777;28;20497;-48
2024/01/31 12:26:44;;;;;;;10.48;4.88;;;6.50;99.90;;;;;;5074048;28;20450;-46
2024/01/31 12:29:10;;;;;;;11.10;4.97;;;6.50;99.90;;;;;;5073627;28;20036;-51
2024/01/31 12:31:35;;;;;;;10.50;5.53;;;6.40;99.90;;;;;;5072529;28;20046;-47
2024/01/31 12:34:02;;;;;;;11.35;6.13;;;6.50;99.90;;;;;;5072430;28;20033;-46
2024/01/31 12:36:28;;;;;;;9.38;4.75;;;6.40;99.90;;;;;;5073378;28;20119;-47
2024/01/31 12:38:53;;;;;;;8.52;4.75;;;6.50;99.90;;;;;;5072481;28;20070;-47
2024/01/31 12:41:19;;;;;;;10.15;4.47;;;6.50;99.90;;;;;;5073562;28;20032;-48
2024/01/31 12:43:45;;;;;;;9.10;5.10;;;6.40;99.90;;;;;;5073824;28;20540;-47
2024/01/31 12:46:11;;;;;;;9.07;5.07;;;6.50;99.90;;;;;;5073386;28;20040;-48
2024/01/31 12:48:37;;;;;;;10.38;5.93;;;6.50;99.90;;;;;;5073548;28;20041;-47
2024/01/31 12:51:02;;;;;;;8.25;5.47;;;6.60;99.90;;;;;;5073458;28;20040;-48